createdAt,value
2018-10-06T00:01:02.444Z,6.80
2018-10-06T00:02:06.206Z,6.60
2018-10-06T00:03:09.605Z,6.25
2018-10-06T00:04:13.043Z,9.85
2018-10-06T00:05:16.687Z,6.70
2018-10-06T00:06:20.132Z,7.47
2018-10-06T00:07:23.570Z,6.87
2018-10-06T00:08:26.965Z,7.95
2018-10-06T00:09:30.369Z,7.72
2018-10-06T00:10:33.759Z,8.05
2018-10-06T00:11:37.156Z,7.22
2018-10-06T00:12:40.659Z,7.35
2018-10-06T00:13:44.206Z,8.60
2018-10-06T00:14:47.777Z,7.20
2018-10-06T00:15:51.176Z,7.22
2018-10-06T00:16:54.676Z,8.83
2018-10-06T00:17:58.077Z,7.10
2018-10-06T00:19:01.472Z,6.60
2018-10-06T00:20:05.128Z,7.33
2018-10-06T00:21:08.565Z,7.65
2018-10-06T00:22:11.935Z,8.03
2018-10-06T00:23:15.366Z,8.83
2018-10-06T00:24:18.785Z,9.15
2018-10-06T00:25:22.492Z,7.90
2018-10-06T00:26:25.897Z,7.45
2018-10-06T00:27:29.278Z,6.75
2018-10-06T00:28:32.668Z,7.40
2018-10-06T00:29:36.055Z,7.28
2018-10-06T00:30:39.452Z,7.12
2018-10-06T00:31:42.869Z,6.83
2018-10-06T00:32:46.288Z,6.80
2018-10-06T00:33:49.665Z,6.10
2018-10-06T00:34:53.074Z,6.35
2018-10-06T00:35:56.460Z,7.35
2018-10-06T00:36:59.885Z,6.80
2018-10-06T00:38:03.385Z,7.03
2018-10-06T00:39:07.324Z,7.03
2018-10-06T00:40:10.783Z,6.45
2018-10-06T00:41:14.164Z,6.72
2018-10-06T00:42:17.539Z,6.65
2018-10-06T00:43:20.953Z,6.70
2018-10-06T00:44:24.332Z,6.95
2018-10-06T00:45:27.825Z,7.03
2018-10-06T00:46:31.242Z,6.20
2018-10-06T00:47:34.665Z,6.58
2018-10-06T00:48:38.092Z,7.25
2018-10-06T00:49:41.484Z,6.92
2018-10-06T00:50:44.872Z,7.00
2018-10-06T00:51:48.268Z,6.08
2018-10-06T00:52:51.676Z,7.12
2018-10-06T00:53:55.096Z,7.00
2018-10-06T00:54:58.457Z,6.83
2018-10-06T00:56:01.846Z,8.83
2018-10-06T00:57:05.222Z,7.15
2018-10-06T00:58:08.653Z,7.12
2018-10-06T00:59:12.109Z,6.95
2018-10-06T01:00:15.488Z,10.30
2018-10-06T01:01:18.912Z,8.25
2018-10-06T01:02:22.330Z,7.42
2018-10-06T01:03:25.712Z,8.15
2018-10-06T01:04:29.164Z,8.68
2018-10-06T01:05:32.563Z,8.33
2018-10-06T01:06:35.929Z,7.00
2018-10-06T01:07:39.359Z,8.08
2018-10-06T01:08:42.731Z,6.80
2018-10-06T01:09:46.149Z,7.17
2018-10-06T01:10:49.537Z,7.92
2018-10-06T01:11:52.944Z,7.12
2018-10-06T01:12:56.320Z,7.40
2018-10-06T01:13:59.714Z,8.68
2018-10-06T01:15:03.109Z,8.90
2018-10-06T01:16:06.479Z,7.67
2018-10-06T01:17:09.916Z,8.10
2018-10-06T01:18:13.389Z,7.20
2018-10-06T01:19:16.788Z,7.12
2018-10-06T01:20:20.184Z,7.03
2018-10-06T01:21:23.734Z,7.60
2018-10-06T01:22:27.105Z,7.10
2018-10-06T01:23:30.488Z,6.87
2018-10-06T01:24:34.115Z,6.83
2018-10-06T01:25:37.533Z,7.47
2018-10-06T01:26:40.940Z,7.22
2018-10-06T01:27:44.398Z,6.85
2018-10-06T01:28:47.795Z,7.60
2018-10-06T01:29:51.176Z,6.95
2018-10-06T01:30:54.615Z,6.65
2018-10-06T01:31:58.254Z,7.92
2018-10-06T01:33:01.673Z,9.23
2018-10-06T01:34:05.074Z,9.03
2018-10-06T01:35:08.485Z,10.32
2018-10-06T01:36:11.884Z,10.45
2018-10-06T01:37:15.277Z,8.88
2018-10-06T01:38:18.699Z,8.00
2018-10-06T01:39:22.088Z,7.92
2018-10-06T01:40:25.501Z,8.13
2018-10-06T01:41:28.876Z,8.03
2018-10-06T01:42:32.299Z,8.78
2018-10-06T01:43:35.681Z,7.97
2018-10-06T01:44:39.124Z,8.53
2018-10-06T01:45:42.540Z,7.53
2018-10-06T01:46:45.984Z,7.72
2018-10-06T01:47:49.400Z,7.42
2018-10-06T01:48:52.784Z,7.90
2018-10-06T01:49:56.188Z,8.53
2018-10-06T01:50:59.631Z,8.95
2018-10-06T01:52:03.006Z,8.78
2018-10-06T01:53:06.412Z,9.58
2018-10-06T01:54:09.919Z,8.25
2018-10-06T01:55:13.300Z,7.90
2018-10-06T01:56:16.718Z,8.53
2018-10-06T01:57:20.129Z,8.35
2018-10-06T01:58:23.545Z,8.40
2018-10-06T01:59:26.941Z,8.10
2018-10-06T02:00:30.337Z,8.35
2018-10-06T02:01:33.740Z,8.00
2018-10-06T02:02:37.120Z,8.35
2018-10-06T02:03:40.529Z,7.70
2018-10-06T02:04:43.925Z,7.97
2018-10-06T02:05:47.423Z,7.87
2018-10-06T02:06:51.056Z,7.33
2018-10-06T02:07:54.472Z,8.13
2018-10-06T02:08:57.930Z,8.00
2018-10-06T02:10:01.328Z,8.35
2018-10-06T02:11:04.709Z,7.47
2018-10-06T02:12:08.113Z,8.33
2018-10-06T02:13:11.492Z,8.00
2018-10-06T02:14:14.907Z,7.72
2018-10-06T02:15:18.288Z,7.58
2018-10-06T02:16:21.780Z,7.53
2018-10-06T02:17:25.196Z,8.40
2018-10-06T02:18:28.590Z,7.17
2018-10-06T02:19:31.984Z,8.18
2018-10-06T02:20:35.414Z,7.33
2018-10-06T02:21:38.830Z,7.20
2018-10-06T02:22:42.216Z,7.70
2018-10-06T02:23:45.589Z,7.35
2018-10-06T02:24:48.973Z,6.85
2018-10-06T02:25:52.352Z,7.08
2018-10-06T02:26:55.759Z,7.85
2018-10-06T02:27:59.349Z,7.30
2018-10-06T02:29:02.716Z,7.15
2018-10-06T02:30:06.201Z,7.10
2018-10-06T02:31:09.517Z,7.60
2018-10-06T02:32:12.909Z,7.10
2018-10-06T02:33:16.289Z,7.65
2018-10-06T02:34:19.754Z,7.95
2018-10-06T02:35:23.137Z,7.45
2018-10-06T02:36:26.493Z,8.28
2018-10-06T02:37:30.071Z,8.45
2018-10-06T02:38:33.442Z,7.75
2018-10-06T02:39:36.825Z,8.00
2018-10-06T02:40:40.222Z,7.65
2018-10-06T02:41:43.626Z,7.28
2018-10-06T02:42:47.041Z,7.28
2018-10-06T02:43:50.461Z,6.70
2018-10-06T02:44:53.852Z,7.87
2018-10-06T02:45:57.225Z,8.40
2018-10-06T02:47:00.615Z,7.10
2018-10-06T02:48:04.069Z,7.28
2018-10-06T02:49:07.472Z,8.78
2018-10-06T02:50:10.845Z,7.80
2018-10-06T02:51:14.221Z,7.97
2018-10-06T02:52:17.608Z,9.20
2018-10-06T02:53:21.000Z,9.90
2018-10-06T02:54:24.371Z,9.20
2018-10-06T02:55:27.773Z,8.05
2018-10-06T02:56:31.144Z,8.00
2018-10-06T02:57:34.523Z,7.47
2018-10-06T02:58:37.933Z,8.58
2018-10-06T02:59:41.323Z,7.65
2018-10-06T03:00:44.715Z,7.75
2018-10-06T03:01:48.110Z,7.62
2018-10-06T03:02:51.488Z,7.97
2018-10-06T03:03:54.877Z,7.47
2018-10-06T03:04:58.721Z,6.60
2018-10-06T03:06:02.093Z,7.85
2018-10-06T03:07:05.654Z,7.22
2018-10-06T03:08:09.036Z,8.75
2018-10-06T03:09:12.440Z,7.87
2018-10-06T03:10:15.847Z,7.12
2018-10-06T03:11:19.240Z,7.30
2018-10-06T03:12:22.925Z,8.43
2018-10-06T03:13:26.318Z,7.40
2018-10-06T03:14:29.797Z,7.15
2018-10-06T03:15:33.183Z,7.08
2018-10-06T03:16:36.601Z,7.35
2018-10-06T03:17:39.986Z,7.12
2018-10-06T03:18:43.377Z,6.92
2018-10-06T03:19:46.819Z,6.47
2018-10-06T03:20:50.217Z,7.40
2018-10-06T03:21:53.600Z,7.15
2018-10-06T03:22:56.984Z,8.18
2018-10-06T03:24:00.380Z,7.55
2018-10-06T03:25:03.786Z,8.03
2018-10-06T03:26:07.188Z,8.63
2018-10-06T03:27:10.753Z,8.60
2018-10-06T03:28:14.123Z,8.43
2018-10-06T03:29:17.500Z,7.45
2018-10-06T03:30:20.901Z,7.78
2018-10-06T03:31:24.317Z,7.22
2018-10-06T03:32:27.708Z,7.53
2018-10-06T03:33:31.137Z,6.65
2018-10-06T03:34:34.570Z,7.37
2018-10-06T03:35:37.975Z,7.33
2018-10-06T03:36:41.368Z,6.78
2018-10-06T03:37:44.745Z,6.78
2018-10-06T03:38:48.119Z,7.10
2018-10-06T03:39:51.556Z,6.37
2018-10-06T03:40:54.971Z,7.17
2018-10-06T03:41:58.365Z,7.78
2018-10-06T03:43:01.825Z,7.10
2018-10-06T03:44:05.213Z,7.20
2018-10-06T03:45:08.944Z,7.30
2018-10-06T03:46:13.130Z,7.90
2018-10-06T03:47:16.502Z,10.35
2018-10-06T03:48:19.887Z,10.38
2018-10-06T03:49:23.296Z,11.65
2018-10-06T03:50:26.678Z,10.53
2018-10-06T03:51:30.072Z,9.80
2018-10-06T03:52:33.458Z,8.65
2018-10-06T03:53:37.198Z,8.38
2018-10-06T03:54:40.604Z,8.60
2018-10-06T03:55:44.104Z,7.70
2018-10-06T03:56:47.492Z,8.50
2018-10-06T03:57:50.881Z,8.10
2018-10-06T03:58:54.309Z,8.05
2018-10-06T03:59:57.749Z,7.42
2018-10-06T04:01:01.134Z,8.80
2018-10-06T04:02:04.564Z,7.90
2018-10-06T04:03:07.945Z,7.47
2018-10-06T04:04:11.342Z,8.10
2018-10-06T04:05:14.748Z,7.35
2018-10-06T04:06:18.166Z,8.38
2018-10-06T04:07:21.704Z,8.50
2018-10-06T04:08:25.107Z,8.53
2018-10-06T04:09:28.492Z,8.75
2018-10-06T04:10:31.885Z,7.78
2018-10-06T04:11:35.577Z,7.65
2018-10-06T04:12:39.145Z,6.78
2018-10-06T04:13:42.524Z,6.97
2018-10-06T04:14:45.908Z,7.10
2018-10-06T04:15:49.288Z,7.03
2018-10-06T04:16:52.684Z,7.62
2018-10-06T04:17:56.059Z,7.78
2018-10-06T04:18:59.608Z,6.92
2018-10-06T04:20:02.995Z,7.45
2018-10-06T04:21:06.649Z,7.50
2018-10-06T04:22:10.026Z,7.25
2018-10-06T04:23:13.430Z,9.08
2018-10-06T04:24:17.983Z,8.75
2018-10-06T04:25:21.384Z,8.15
2018-10-06T04:26:24.764Z,7.22
2018-10-06T04:27:28.162Z,7.03
2018-10-06T04:28:31.554Z,7.03
2018-10-06T04:29:34.959Z,7.17
2018-10-06T04:30:38.361Z,7.95
2018-10-06T04:31:41.736Z,6.60
2018-10-06T04:32:45.133Z,7.37
2018-10-06T04:33:48.583Z,11.30
2018-10-06T04:34:51.994Z,11.83
2018-10-06T04:35:55.397Z,11.43
2018-10-06T04:36:58.792Z,11.85
2018-10-06T04:38:02.182Z,9.25
2018-10-06T04:39:11.212Z,8.63
2018-10-06T04:40:14.609Z,6.80
2018-10-06T04:41:17.988Z,7.12
2018-10-06T04:42:21.379Z,7.25
2018-10-06T04:43:24.795Z,7.33
2018-10-06T04:44:28.208Z,7.83
2018-10-06T04:45:31.581Z,7.30
2018-10-06T04:46:34.981Z,7.10
2018-10-06T04:47:38.422Z,10.55
2018-10-06T04:48:41.813Z,11.57
2018-10-06T04:49:45.200Z,13.00
2018-10-06T04:50:48.568Z,12.47
2018-10-06T04:51:51.957Z,10.55
2018-10-06T04:52:55.422Z,8.78
2018-10-06T04:53:58.753Z,7.80
2018-10-06T04:55:02.154Z,8.23
2018-10-06T04:56:05.530Z,7.30
2018-10-06T04:57:08.963Z,7.05
2018-10-06T04:58:12.349Z,6.70
2018-10-06T04:59:15.857Z,7.53
2018-10-06T05:00:19.285Z,11.75
2018-10-06T05:01:22.666Z,16.45
2018-10-06T05:02:26.577Z,10.82
2018-10-06T05:03:30.031Z,9.60
2018-10-06T05:04:33.377Z,8.53
2018-10-06T05:05:36.772Z,8.83
2018-10-06T05:06:40.280Z,8.23
2018-10-06T05:07:43.705Z,7.75
2018-10-06T05:08:47.083Z,7.50
2018-10-06T05:09:50.480Z,7.30
2018-10-06T05:10:53.889Z,6.72
2018-10-06T05:11:57.299Z,7.80
2018-10-06T05:13:00.699Z,7.03
2018-10-06T05:14:04.168Z,6.65
2018-10-06T05:15:07.609Z,7.58
2018-10-06T05:16:11.000Z,8.38
2018-10-06T05:17:14.391Z,9.73
2018-10-06T05:18:17.771Z,8.95
2018-10-06T05:19:21.311Z,8.45
2018-10-06T05:20:24.720Z,7.80
2018-10-06T05:21:28.094Z,7.08
2018-10-06T05:22:31.467Z,6.75
2018-10-06T05:23:34.984Z,6.65
2018-10-06T05:24:38.300Z,6.40
2018-10-06T05:25:41.672Z,6.72
2018-10-06T05:26:45.044Z,6.60
2018-10-06T05:27:48.426Z,6.50
2018-10-06T05:28:51.804Z,6.95
2018-10-06T05:29:55.194Z,6.83
2018-10-06T05:30:58.565Z,7.40
2018-10-06T05:32:01.957Z,6.83
2018-10-06T05:33:05.336Z,6.70
2018-10-06T05:34:08.793Z,6.03
2018-10-06T05:35:12.143Z,6.87
2018-10-06T05:36:15.540Z,6.50
2018-10-06T05:37:19.077Z,6.62
2018-10-06T05:38:22.464Z,7.35
2018-10-06T05:39:25.833Z,6.65
2018-10-06T05:40:29.254Z,6.62
2018-10-06T05:41:32.644Z,6.85
2018-10-06T05:42:36.093Z,6.10
2018-10-06T05:43:39.482Z,6.40
2018-10-06T05:44:42.865Z,7.53
2018-10-06T05:45:46.361Z,9.28
2018-10-06T05:46:49.748Z,8.85
2018-10-06T05:47:53.137Z,7.97
2018-10-06T05:48:56.540Z,7.00
2018-10-06T05:49:59.957Z,6.97
2018-10-06T05:51:03.368Z,6.67
2018-10-06T05:52:06.744Z,6.33
2018-10-06T05:53:10.130Z,6.03
2018-10-06T05:54:13.500Z,6.67
2018-10-06T05:55:16.896Z,11.30
2018-10-06T05:56:20.331Z,8.25
2018-10-06T05:57:23.714Z,9.73
2018-10-06T05:58:27.112Z,7.35
2018-10-06T05:59:30.488Z,7.65
2018-10-06T06:00:33.922Z,7.17
2018-10-06T06:01:37.352Z,6.72
2018-10-06T06:02:40.745Z,6.78
2018-10-06T06:03:44.190Z,6.67
2018-10-06T06:04:47.565Z,6.87
2018-10-06T06:05:50.956Z,7.12
2018-10-06T06:06:54.364Z,6.72
2018-10-06T06:07:57.780Z,6.20
2018-10-06T06:09:01.160Z,5.95
2018-10-06T06:10:04.909Z,6.90
2018-10-06T06:11:08.315Z,6.35
2018-10-06T06:12:11.738Z,6.30
2018-10-06T06:13:15.127Z,6.45
2018-10-06T06:14:18.543Z,6.92
2018-10-06T06:15:22.054Z,8.00
2018-10-06T06:16:25.449Z,8.05
2018-10-06T06:17:28.863Z,7.67
2018-10-06T06:18:32.316Z,7.50
2018-10-06T06:19:35.708Z,7.37
2018-10-06T06:20:39.183Z,6.90
2018-10-06T06:21:42.556Z,6.58
2018-10-06T06:22:45.986Z,7.40
2018-10-06T06:23:49.389Z,6.25
2018-10-06T06:24:52.749Z,6.47
2018-10-06T06:25:56.157Z,7.58
2018-10-06T06:26:59.552Z,7.62
2018-10-06T06:28:02.976Z,6.65
2018-10-06T06:29:06.365Z,8.00
2018-10-06T06:30:09.749Z,8.45
2018-10-06T06:31:13.124Z,8.35
2018-10-06T06:32:16.563Z,7.58
2018-10-06T06:33:19.919Z,7.40
2018-10-06T06:34:23.313Z,6.20
2018-10-06T06:35:26.708Z,6.83
2018-10-06T06:36:30.113Z,6.50
2018-10-06T06:37:33.553Z,7.05
2018-10-06T06:38:37.094Z,7.12
2018-10-06T06:39:40.484Z,6.53
2018-10-06T06:40:43.880Z,7.28
2018-10-06T06:41:47.268Z,7.45
2018-10-06T06:42:50.687Z,7.17
2018-10-06T06:43:54.159Z,9.08
2018-10-06T06:44:57.517Z,11.40
2018-10-06T06:46:00.915Z,9.03
2018-10-06T06:47:04.601Z,8.03
2018-10-06T06:48:07.951Z,6.70
2018-10-06T06:49:11.348Z,7.25
2018-10-06T06:50:14.716Z,7.10
2018-10-06T06:51:18.117Z,7.08
2018-10-06T06:52:21.496Z,8.15
2018-10-06T06:53:24.880Z,7.62
2018-10-06T06:54:28.281Z,7.87
2018-10-06T06:55:31.734Z,7.55
2018-10-06T06:56:35.123Z,8.00
2018-10-06T06:57:38.536Z,7.50
2018-10-06T06:58:41.960Z,9.03
2018-10-06T06:59:45.350Z,8.58
2018-10-06T07:00:48.732Z,8.70
2018-10-06T07:01:52.112Z,8.23
2018-10-06T07:02:55.481Z,8.03
2018-10-06T07:03:58.880Z,8.23
2018-10-06T07:05:02.280Z,7.10
2018-10-06T07:06:05.675Z,7.20
2018-10-06T07:07:09.145Z,8.05
2018-10-06T07:08:12.525Z,7.95
2018-10-06T07:09:15.946Z,7.75
2018-10-06T07:10:19.480Z,8.20
2018-10-06T07:11:22.860Z,9.03
2018-10-06T07:12:26.287Z,8.50
2018-10-06T07:13:29.704Z,11.60
2018-10-06T07:14:33.104Z,10.65
2018-10-06T07:15:36.800Z,9.58
2018-10-06T07:16:40.196Z,8.13
2018-10-06T07:17:43.900Z,7.20
2018-10-06T07:18:47.290Z,7.80
2018-10-06T07:19:50.682Z,7.62
2018-10-06T07:20:54.096Z,7.03
2018-10-06T07:21:57.477Z,6.60
2018-10-06T07:23:00.881Z,6.25
2018-10-06T07:24:04.302Z,6.30
2018-10-06T07:25:07.940Z,7.53
2018-10-06T07:26:11.324Z,6.95
2018-10-06T07:27:14.728Z,8.58
2018-10-06T07:28:18.380Z,7.75
2018-10-06T07:29:21.787Z,8.38
2018-10-06T07:30:25.328Z,7.10
2018-10-06T07:31:28.684Z,6.45
2018-10-06T07:32:32.316Z,6.87
2018-10-06T07:33:35.711Z,6.40
2018-10-06T07:34:39.095Z,9.43
2018-10-06T07:35:42.476Z,9.78
2018-10-06T07:36:45.869Z,8.78
2018-10-06T07:37:49.322Z,7.62
2018-10-06T07:38:52.712Z,7.65
2018-10-06T07:39:56.119Z,7.05
2018-10-06T07:40:59.520Z,6.97
2018-10-06T07:42:03.000Z,6.90
2018-10-06T07:43:06.443Z,7.58
2018-10-06T07:44:09.844Z,6.87
2018-10-06T07:45:13.232Z,7.90
2018-10-06T07:46:16.620Z,8.98
2018-10-06T07:47:20.013Z,7.65
2018-10-06T07:48:23.410Z,6.67
2018-10-06T07:49:26.788Z,6.37
2018-10-06T07:50:30.202Z,7.62
2018-10-06T07:51:33.561Z,6.67
2018-10-06T07:52:36.953Z,6.47
2018-10-06T07:53:40.340Z,7.42
2018-10-06T07:54:43.826Z,6.35
2018-10-06T07:55:47.228Z,6.10
2018-10-06T07:56:50.631Z,6.47
2018-10-06T07:57:54.041Z,7.28
2018-10-06T07:58:57.505Z,6.72
2018-10-06T08:00:00.922Z,6.00
2018-10-06T08:01:04.341Z,6.20
2018-10-06T08:02:07.724Z,6.85
2018-10-06T08:03:11.105Z,6.05
2018-10-06T08:04:14.517Z,5.90
2018-10-06T08:05:17.910Z,6.17
2018-10-06T08:06:21.638Z,6.45
2018-10-06T08:07:24.965Z,6.70
2018-10-06T08:08:28.372Z,6.00
2018-10-06T08:09:31.746Z,6.55
2018-10-06T08:10:35.137Z,6.20
2018-10-06T08:11:38.749Z,6.28
2018-10-06T08:12:42.183Z,5.85
2018-10-06T08:13:45.572Z,6.50
2018-10-06T08:14:49.279Z,6.47
2018-10-06T08:15:52.883Z,6.45
2018-10-06T08:16:56.272Z,6.22
2018-10-06T08:17:59.666Z,5.33
2018-10-06T08:19:03.064Z,5.72
2018-10-06T08:20:06.444Z,5.92
2018-10-06T08:21:09.828Z,5.55
2018-10-06T08:22:13.266Z,5.55
2018-10-06T08:23:16.664Z,5.55
2018-10-06T08:24:20.044Z,5.83
2018-10-06T08:25:23.408Z,5.85
2018-10-06T08:26:26.784Z,6.10
2018-10-06T08:27:30.191Z,5.50
2018-10-06T08:28:33.567Z,5.90
2018-10-06T08:29:36.992Z,5.33
2018-10-06T08:30:40.480Z,5.42
2018-10-06T08:31:43.859Z,5.62
2018-10-06T08:32:47.248Z,4.60
2018-10-06T08:33:50.636Z,5.47
2018-10-06T08:34:54.008Z,5.45
2018-10-06T08:35:57.363Z,5.05
2018-10-06T08:37:00.755Z,5.37
2018-10-06T08:38:04.172Z,5.50
2018-10-06T08:39:08.484Z,5.75
2018-10-06T08:40:11.868Z,5.03
2018-10-06T08:41:15.239Z,5.08
2018-10-06T08:42:18.617Z,4.58
2018-10-06T08:43:22.016Z,5.70
2018-10-06T08:44:25.399Z,4.83
2018-10-06T08:45:29.126Z,4.42
2018-10-06T08:46:32.508Z,5.28
2018-10-06T08:47:35.883Z,4.78
2018-10-06T08:48:39.297Z,4.72
2018-10-06T08:49:42.757Z,5.58
2018-10-06T08:50:46.075Z,4.72
2018-10-06T08:51:49.446Z,5.60
2018-10-06T08:52:52.819Z,4.45
2018-10-06T08:53:56.209Z,5.05
2018-10-06T08:54:59.605Z,4.37
2018-10-06T08:56:02.997Z,4.95
2018-10-06T08:57:06.649Z,4.97
2018-10-06T08:58:10.181Z,4.67
2018-10-06T08:59:13.548Z,4.70
2018-10-06T09:00:16.938Z,4.37
2018-10-06T09:01:20.316Z,4.67
2018-10-06T09:02:23.680Z,4.58
2018-10-06T09:03:27.108Z,4.47
2018-10-06T09:04:30.480Z,9.00
2018-10-06T09:05:33.844Z,9.85
2018-10-06T09:06:37.242Z,8.95
2018-10-06T09:07:40.652Z,7.00
2018-10-06T09:08:44.456Z,9.35
2018-10-06T09:09:47.849Z,14.50
2018-10-06T09:10:51.285Z,14.40
2018-10-06T09:11:54.624Z,14.78
2018-10-06T09:12:58.008Z,11.50
2018-10-06T09:14:01.387Z,10.80
2018-10-06T09:15:04.766Z,8.78
2018-10-06T09:16:08.195Z,7.37
2018-10-06T09:17:11.560Z,6.00
2018-10-06T09:18:15.050Z,5.90
2018-10-06T09:19:18.455Z,5.20
2018-10-06T09:20:21.851Z,5.92
2018-10-06T09:21:25.232Z,6.20
2018-10-06T09:22:28.732Z,7.03
2018-10-06T09:23:32.109Z,6.22
2018-10-06T09:24:35.594Z,5.62
2018-10-06T09:25:38.980Z,6.00
2018-10-06T09:26:42.605Z,4.62
2018-10-06T09:27:46.040Z,6.12
2018-10-06T09:28:49.456Z,6.37
2018-10-06T09:29:52.828Z,5.35
2018-10-06T09:30:56.195Z,6.37
2018-10-06T09:31:59.563Z,6.85
2018-10-06T09:33:02.945Z,6.40
2018-10-06T09:34:06.320Z,5.17
2018-10-06T09:35:09.693Z,6.00
2018-10-06T09:36:13.602Z,4.90
2018-10-06T09:37:17.068Z,6.70
2018-10-06T09:38:20.427Z,6.58
2018-10-06T09:39:23.800Z,6.42
2018-10-06T09:40:27.204Z,5.40
2018-10-06T09:41:30.568Z,5.83
2018-10-06T09:42:34.066Z,6.90
2018-10-06T09:43:37.316Z,4.20
2018-10-06T09:44:40.691Z,5.28
2018-10-06T09:45:44.098Z,5.60
2018-10-06T09:46:47.463Z,4.67
2018-10-06T09:47:50.852Z,4.40
2018-10-06T09:48:54.238Z,4.03
2018-10-06T09:49:57.603Z,4.75
2018-10-06T09:51:00.990Z,4.78
2018-10-06T09:52:04.413Z,6.22
2018-10-06T09:53:07.780Z,5.45
2018-10-06T09:54:11.154Z,5.97
2018-10-06T09:55:14.533Z,6.83
2018-10-06T09:56:17.953Z,5.78
2018-10-06T09:57:21.486Z,6.15
2018-10-06T09:58:24.848Z,5.15
2018-10-06T09:59:28.484Z,9.85
2018-10-06T10:00:37.237Z,7.80
2018-10-06T10:01:46.020Z,9.45
2018-10-06T10:02:54.876Z,5.42
2018-10-06T10:04:03.639Z,6.55
2018-10-06T10:05:12.362Z,5.85
2018-10-06T10:06:15.752Z,5.53
2018-10-06T10:07:19.125Z,6.53
2018-10-06T10:08:22.572Z,6.25
2018-10-06T10:09:26.002Z,5.30
2018-10-06T10:10:29.427Z,5.08
2018-10-06T10:11:32.839Z,5.22
2018-10-06T10:12:36.226Z,5.00
2018-10-06T10:13:39.613Z,4.53
2018-10-06T10:14:43.034Z,5.17
2018-10-06T10:15:46.423Z,5.10
2018-10-06T10:16:49.819Z,4.90
2018-10-06T10:17:53.375Z,4.78
2018-10-06T10:18:56.615Z,5.50
2018-10-06T10:19:59.994Z,5.33
2018-10-06T10:21:03.388Z,7.33
2018-10-06T10:22:07.215Z,6.58
2018-10-06T10:23:10.615Z,6.83
2018-10-06T10:24:14.026Z,6.12
2018-10-06T10:25:17.429Z,8.70
2018-10-06T10:26:20.808Z,6.30
2018-10-06T10:27:24.196Z,6.95
2018-10-06T10:28:27.701Z,10.20
2018-10-06T10:29:31.008Z,9.28
2018-10-06T10:30:34.398Z,5.40
2018-10-06T10:31:37.773Z,4.87
2018-10-06T10:32:41.164Z,6.20
2018-10-06T10:33:44.552Z,4.45
2018-10-06T10:34:47.921Z,4.35
2018-10-06T10:35:51.307Z,5.33
2018-10-06T10:36:54.684Z,5.70
2018-10-06T10:37:58.333Z,5.72
2018-10-06T10:39:01.800Z,5.30
2018-10-06T10:40:05.204Z,4.55
2018-10-06T10:41:08.597Z,4.87
2018-10-06T10:42:11.991Z,6.20
2018-10-06T10:43:15.355Z,5.00
2018-10-06T10:44:18.778Z,4.17
2018-10-06T10:45:22.116Z,5.03
2018-10-06T10:46:25.499Z,4.42
2018-10-06T10:47:28.887Z,5.55
2018-10-06T10:48:32.277Z,4.45
2018-10-06T10:49:35.729Z,4.22
2018-10-06T10:50:39.090Z,5.95
2018-10-06T10:51:42.427Z,5.47
2018-10-06T10:52:45.820Z,4.42
2018-10-06T10:53:49.196Z,4.17
2018-10-06T10:54:52.588Z,3.90
2018-10-06T10:55:55.968Z,5.10
2018-10-06T10:56:59.371Z,4.00
2018-10-06T10:58:02.800Z,3.58
2018-10-06T10:59:06.212Z,3.95
2018-10-06T11:00:09.996Z,4.20
2018-10-06T11:01:13.445Z,6.08
2018-10-06T11:02:16.803Z,5.37
2018-10-06T11:03:20.210Z,4.47
2018-10-06T11:04:23.587Z,13.18
2018-10-06T11:05:26.968Z,12.18
2018-10-06T11:06:30.360Z,5.17
2018-10-06T11:07:33.784Z,8.85
2018-10-06T11:08:37.185Z,9.23
2018-10-06T11:09:40.590Z,9.58
2018-10-06T11:10:43.976Z,6.47
2018-10-06T11:11:47.511Z,6.37
2018-10-06T11:12:50.903Z,5.50
2018-10-06T11:13:54.300Z,4.22
2018-10-06T11:14:57.715Z,3.90
2018-10-06T11:16:01.120Z,4.60
2018-10-06T11:17:04.576Z,5.95
2018-10-06T11:18:07.929Z,3.67
2018-10-06T11:19:11.388Z,4.03
2018-10-06T11:20:14.761Z,5.08
2018-10-06T11:21:18.172Z,5.25
2018-10-06T11:22:21.582Z,5.12
2018-10-06T11:23:25.044Z,7.55
2018-10-06T11:24:28.466Z,5.00
2018-10-06T11:25:31.851Z,7.97
2018-10-06T11:26:35.267Z,3.50
2018-10-06T11:27:38.885Z,4.28
2018-10-06T11:28:42.288Z,3.72
2018-10-06T11:29:45.691Z,6.08
2018-10-06T11:30:49.076Z,3.87
2018-10-06T11:31:52.510Z,3.27
2018-10-06T11:32:55.899Z,2.83
2018-10-06T11:33:59.305Z,6.37
2018-10-06T11:35:02.688Z,5.33
2018-10-06T11:36:06.072Z,3.87
2018-10-06T11:37:09.505Z,4.22
2018-10-06T11:38:12.915Z,5.75
2018-10-06T11:39:16.373Z,4.80
2018-10-06T11:40:19.821Z,5.80
2018-10-06T11:41:23.204Z,6.33
2018-10-06T11:42:26.613Z,4.87
2018-10-06T11:43:30.037Z,4.60
2018-10-06T11:44:33.429Z,6.37
2018-10-06T11:45:36.795Z,12.07
2018-10-06T11:46:40.168Z,3.42
2018-10-06T11:47:43.631Z,17.75
2018-10-06T11:48:47.010Z,14.90
2018-10-06T11:49:50.475Z,10.93
2018-10-06T11:50:53.873Z,5.92
2018-10-06T11:51:57.347Z,4.10
2018-10-06T11:53:00.732Z,3.35
2018-10-06T11:54:04.140Z,8.43
2018-10-06T11:55:07.541Z,13.30
2018-10-06T11:56:10.920Z,5.25
2018-10-06T11:57:14.287Z,4.58
2018-10-06T11:58:17.666Z,2.67
2018-10-06T11:59:21.061Z,2.98
2018-10-06T12:00:24.707Z,2.50
2018-10-06T12:01:27.955Z,4.03
2018-10-06T12:02:31.315Z,2.92
2018-10-06T12:03:34.699Z,2.62
2018-10-06T12:04:38.091Z,2.90
2018-10-06T12:05:41.510Z,3.05
2018-10-06T12:06:44.867Z,2.50
2018-10-06T12:07:48.241Z,2.30
2018-10-06T12:08:51.624Z,3.02
2018-10-06T12:09:55.000Z,2.72
2018-10-06T12:10:58.374Z,2.30
2018-10-06T12:12:01.786Z,2.58
2018-10-06T12:13:05.196Z,2.00
2018-10-06T12:14:08.592Z,2.10
2018-10-06T12:15:11.968Z,2.72
2018-10-06T12:16:15.353Z,2.35
2018-10-06T12:17:18.715Z,2.58
2018-10-06T12:18:22.103Z,2.15
2018-10-06T12:19:25.504Z,1.95
2018-10-06T12:20:28.956Z,2.42
2018-10-06T12:21:32.384Z,2.10
2018-10-06T12:22:35.760Z,2.30
2018-10-06T12:23:39.253Z,2.22
2018-10-06T12:24:42.633Z,2.02
2018-10-06T12:25:46.005Z,2.05
2018-10-06T12:26:49.390Z,2.25
2018-10-06T12:27:52.764Z,2.17
2018-10-06T12:28:56.165Z,2.15
2018-10-06T12:29:59.552Z,2.20
2018-10-06T12:31:02.968Z,2.05
2018-10-06T12:32:06.374Z,2.27
2018-10-06T12:33:09.745Z,2.27
2018-10-06T12:34:13.140Z,2.25
2018-10-06T12:35:16.637Z,2.15
2018-10-06T12:36:19.912Z,1.77
2018-10-06T12:37:23.308Z,1.80
2018-10-06T12:38:26.713Z,1.87
2018-10-06T12:39:30.075Z,1.80
2018-10-06T12:40:33.475Z,2.12
2018-10-06T12:41:36.867Z,2.05
2018-10-06T12:42:40.259Z,2.20
2018-10-06T12:43:43.675Z,2.65
2018-10-06T12:44:47.061Z,2.00
2018-10-06T12:45:50.572Z,1.70
2018-10-06T12:46:54.044Z,2.50
2018-10-06T12:47:57.425Z,2.00
2018-10-06T12:49:00.792Z,1.90
2018-10-06T12:50:04.165Z,1.70
2018-10-06T12:51:07.578Z,1.80
2018-10-06T12:52:10.956Z,1.85
2018-10-06T12:53:14.312Z,2.08
2018-10-06T12:54:17.695Z,2.37
2018-10-06T12:55:21.071Z,2.25
2018-10-06T12:56:24.473Z,2.27
2018-10-06T12:57:27.863Z,2.15
2018-10-06T12:58:31.236Z,2.37
2018-10-06T12:59:34.625Z,2.22
2018-10-06T13:00:38.021Z,1.70
2018-10-06T13:01:41.387Z,1.90
2018-10-06T13:02:44.744Z,1.72
2018-10-06T13:03:48.174Z,2.37
2018-10-06T13:04:52.069Z,2.30
2018-10-06T13:05:55.524Z,2.30
2018-10-06T13:06:59.165Z,2.27
2018-10-06T13:08:02.572Z,2.15
2018-10-06T13:09:07.938Z,2.05
2018-10-06T13:10:11.547Z,2.60
2018-10-06T13:11:15.110Z,2.33
2018-10-06T13:12:18.496Z,3.35
2018-10-06T13:13:21.863Z,2.70
2018-10-06T13:14:25.280Z,2.20
2018-10-06T13:15:28.685Z,2.42
2018-10-06T13:16:32.071Z,2.22
2018-10-06T13:17:35.456Z,2.85
2018-10-06T13:18:38.839Z,2.87
2018-10-06T13:19:42.201Z,1.92
2018-10-06T13:20:45.646Z,2.85
2018-10-06T13:21:49.026Z,2.72
2018-10-06T13:22:52.436Z,2.17
2018-10-06T13:23:55.825Z,3.10
2018-10-06T13:24:59.235Z,2.87
2018-10-06T13:26:02.616Z,2.05
2018-10-06T13:27:06.029Z,2.25
2018-10-06T13:28:09.572Z,1.95
2018-10-06T13:29:12.953Z,2.42
2018-10-06T13:30:16.353Z,2.65
2018-10-06T13:31:19.759Z,1.95
2018-10-06T13:32:23.164Z,2.30
2018-10-06T13:33:26.533Z,2.15
2018-10-06T13:34:29.944Z,1.75
2018-10-06T13:35:33.314Z,2.05
2018-10-06T13:36:36.716Z,2.70
2018-10-06T13:37:40.104Z,2.30
2018-10-06T13:38:43.497Z,2.10
2018-10-06T13:39:46.895Z,2.37
2018-10-06T13:40:50.293Z,2.75
2018-10-06T13:41:53.708Z,2.25
2018-10-06T13:42:57.097Z,2.77
2018-10-06T13:44:00.476Z,2.35
2018-10-06T13:45:03.975Z,3.45
2018-10-06T13:46:07.445Z,3.00
2018-10-06T13:47:10.845Z,2.35
2018-10-06T13:48:14.207Z,2.62
2018-10-06T13:49:18.276Z,2.20
2018-10-06T13:50:21.665Z,2.92
2018-10-06T13:51:25.053Z,2.35
2018-10-06T13:52:28.447Z,2.12
2018-10-06T13:53:31.814Z,2.20
2018-10-06T13:54:35.193Z,2.17
2018-10-06T13:55:38.614Z,1.95
2018-10-06T13:56:41.976Z,2.20
2018-10-06T13:57:45.363Z,2.05
2018-10-06T13:58:48.815Z,2.35
2018-10-06T13:59:52.164Z,2.15
2018-10-06T14:00:55.657Z,2.10
2018-10-06T14:01:59.064Z,2.22
2018-10-06T14:03:02.440Z,2.40
2018-10-06T14:04:05.821Z,2.10